Mississippi — AEUI — position and weather

sailwx.info

Track history (hours):
 
Tides and Currents Weather Stations Pressure Air Temp Water Temp Dewpoint Dewpoint Depression Visibility Wind Speed Wind Dir Waves Ship Positions

Mississippi

Last reported at 2017-Aug-21 14:52 UTC. Time now 2017-Sep-26 16:23 UTC.
Position N 32°40' W 091°07'.
Warning: this ship's position is 36 days out of date.

Length 100 m.

Type: Tow > 200 m length. MMSI: 38924000.

Date/timePositionNaut miles runAvg speedWind from/ knotsBaromVisibWave heightAir tempDewpointWater temp
2017-Aug-21 14:52N 32°40' W 091°07'3 6.2
2017-Aug-21 14:28N 32°38' W 091°09'3 6.9
2017-Aug-21 14:00N 32°35' W 091°08'3 6.5
2017-Aug-21 13:30N 32°32' W 091°06'4 7.0
2017-Aug-21 13:00N 32°29' W 091°07'4 7.1
2017-Aug-21 12:30N 32°26' W 091°04'3 6.8
2017-Aug-21 12:00N 32°25' W 090°60'3 6.5
2017-Aug-21 11:30N 32°22' W 091°00'3 6.9
2017-Aug-21 11:00N 32°21' W 090°56'3 5.1
2017-Aug-21 10:30N 32°19' W 090°55'3 6.3
2017-Aug-21 10:00N 32°17' W 090°57'3 5.3
2017-Aug-21 09:30N 32°14' W 090°59'2 3.3
2017-Aug-21 09:00N 32°13' W 090°59'3 6.6
2017-Aug-21 08:30N 32°10' W 091°00'3 5.8
2017-Aug-21 08:00N 32°07' W 091°02'3 6.5
2017-Aug-21 07:30N 32°08' W 091°06'2 4.7
2017-Aug-21 06:59N 32°06' W 091°05'0 0.4
2017-Aug-21 06:30N 32°06' W 091°05'2 4.0
2017-Aug-21 05:59N 32°04' W 091°04'4 7.3
2017-Aug-21 05:30N 32°01' W 091°05'6 6.6
2017-Aug-21 04:37N 31°58' W 091°11'150 3.1
2017-Aug-19 04:52N 29°34' W 090°23'2 5.2
2017-Aug-19 04:27N 29°33' W 090°26'3 6.3
2017-Aug-19 04:00N 29°34' W 090°29'2 4.1
2017-Aug-19 03:30N 29°34' W 090°31'2 3.6
2017-Aug-19 03:00N 29°34' W 090°33'1 2.0
2017-Aug-19 02:30N 29°34' W 090°34'1 2.8
2017-Aug-19 02:00N 29°35' W 090°36'2 3.3
2017-Aug-19 01:30N 29°35' W 090°38'1 2.4
2017-Aug-19 01:00N 29°36' W 090°39'2 3.2
2017-Aug-19 00:30N 29°36' W 090°41'2 3.1
2017-Aug-19 00:00N 29°36' W 090°43'2 3.8
2017-Aug-18 23:30N 29°35' W 090°43'1 2.1
2017-Aug-18 23:00N 29°34' W 090°43'0 0.0
2017-Aug-18 22:30N 29°34' W 090°43'0 0.0
2017-Aug-18 22:00N 29°34' W 090°43'0 0.0
2017-Aug-18 21:30N 29°34' W 090°43'0 0.0
2017-Aug-18 21:00N 29°34' W 090°43'0 0.0
2017-Aug-18 20:30N 29°34' W 090°43'0 0.0
2017-Aug-18 20:00N 29°34' W 090°43'0 0.0
2017-Aug-18 19:30N 29°34' W 090°43'0 0.0
2017-Aug-18 19:00N 29°34' W 090°43'0 0.0
2017-Aug-18 18:30N 29°34' W 090°43'0 0.0
2017-Aug-18 18:00N 29°34' W 090°43'0 0.0
2017-Aug-18 17:30N 29°34' W 090°43'0 0.0
2017-Aug-18 17:00N 29°34' W 090°43'0 0.0
2017-Aug-18 16:30N 29°34' W 090°43'0 0.0
2017-Aug-18 16:00N 29°34' W 090°43'0 0.0
2017-Aug-18 15:30N 29°34' W 090°43'0 0.0
2017-Aug-18 15:00N 29°34' W 090°43'0 0.0
2017-Aug-18 14:30N 29°34' W 090°43'0 0.0
2017-Aug-18 13:30N 29°34' W 090°43'0 0.0
2017-Aug-18 13:00N 29°34' W 090°43'0 0.0
2017-Aug-18 12:30N 29°34' W 090°43'0 0.0
2017-Aug-18 12:00N 29°34' W 090°43'0 0.0
2017-Aug-18 11:30N 29°34' W 090°43'0 0.0
2017-Aug-18 11:00N 29°34' W 090°43'0 0.0
2017-Aug-18 10:30N 29°34' W 090°43'0 0.0
2017-Aug-18 10:00N 29°34' W 090°43'0 0.0
2017-Aug-18 09:30N 29°34' W 090°43'0 0.0
2017-Aug-18 09:00N 29°34' W 090°43'0 0.0
2017-Aug-18 08:30N 29°34' W 090°43'0 0.7
2017-Aug-18 08:00N 29°33' W 090°42'2 3.5
2017-Aug-18 07:30N 29°34' W 090°44'3 6.0
2017-Aug-18 07:00N 29°32' W 090°47'4 7.5
2017-Aug-18 06:30N 29°32' W 090°52'4 7.5
2017-Aug-18 05:55N 29°34' W 090°56'  
2017-Aug-11 21:54N 31°58' W 091°11'513.2
2017-Aug-11 21:30N 31°60' W 091°06'611.8
2017-Aug-11 20:57N 32°06' W 091°06'4 8.5
2017-Aug-11 20:30N 32°07' W 091°02'510.4
2017-Aug-11 19:59N 32°12' W 090°59'0 0.2
2017-Aug-11 19:31N 32°12' W 090°59'3 6.4
2017-Aug-11 19:01N 32°15' W 090°59'4 8.2
2017-Aug-11 18:30N 32°18' W 090°55'3 7.0
2017-Aug-11 18:01N 32°21' W 090°53'0 0.1
2017-Aug-11 17:31N 32°21' W 090°53'0 0.0
2017-Aug-11 17:01N 32°21' W 090°53'0 0.0
2017-Aug-11 16:30N 32°21' W 090°53'0 0.0
2017-Aug-11 16:00N 32°21' W 090°53'0 0.0
2017-Aug-11 15:30N 32°21' W 090°53'0 0.0
2017-Aug-11 15:01N 32°21' W 090°53'  
Track history (hours):
 
Tides and Currents Weather Stations Pressure Air Temp Water Temp Dewpoint Dewpoint Depression Visibility Wind Speed Wind Dir Waves Ship Positions

Mississippi

Last reported at 2017-Aug-21 14:52 UTC. Time now 2017-Sep-26 16:23 UTC.
Position N 32°40' W 091°07'.
Warning: this ship's position is 36 days out of date.

Length 100 m.

Type: Tow > 200 m length. MMSI: 38924000.

Date/timePositionNaut miles runAvg speedWind from/ knotsBaromVisibWave heightAir tempDewpointWater temp
2017-Aug-21 14:52N 32°40' W 091°07'3 6.2
2017-Aug-21 14:28N 32°38' W 091°09'3 6.9
2017-Aug-21 14:00N 32°35' W 091°08'3 6.5
2017-Aug-21 13:30N 32°32' W 091°06'4 7.0
2017-Aug-21 13:00N 32°29' W 091°07'4 7.1
2017-Aug-21 12:30N 32°26' W 091°04'3 6.8
2017-Aug-21 12:00N 32°25' W 090°60'3 6.5
2017-Aug-21 11:30N 32°22' W 091°00'3 6.9
2017-Aug-21 11:00N 32°21' W 090°56'3 5.1
2017-Aug-21 10:30N 32°19' W 090°55'3 6.3
2017-Aug-21 10:00N 32°17' W 090°57'3 5.3
2017-Aug-21 09:30N 32°14' W 090°59'2 3.3
2017-Aug-21 09:00N 32°13' W 090°59'3 6.6
2017-Aug-21 08:30N 32°10' W 091°00'3 5.8
2017-Aug-21 08:00N 32°07' W 091°02'3 6.5
2017-Aug-21 07:30N 32°08' W 091°06'2 4.7
2017-Aug-21 06:59N 32°06' W 091°05'0 0.4
2017-Aug-21 06:30N 32°06' W 091°05'2 4.0
2017-Aug-21 05:59N 32°04' W 091°04'4 7.3
2017-Aug-21 05:30N 32°01' W 091°05'6 6.6
2017-Aug-21 04:37N 31°58' W 091°11'150 3.1
2017-Aug-19 04:52N 29°34' W 090°23'2 5.2
2017-Aug-19 04:27N 29°33' W 090°26'3 6.3
2017-Aug-19 04:00N 29°34' W 090°29'2 4.1
2017-Aug-19 03:30N 29°34' W 090°31'2 3.6
2017-Aug-19 03:00N 29°34' W 090°33'1 2.0
2017-Aug-19 02:30N 29°34' W 090°34'1 2.8
2017-Aug-19 02:00N 29°35' W 090°36'2 3.3
2017-Aug-19 01:30N 29°35' W 090°38'1 2.4
2017-Aug-19 01:00N 29°36' W 090°39'2 3.2
2017-Aug-19 00:30N 29°36' W 090°41'2 3.1
2017-Aug-19 00:00N 29°36' W 090°43'2 3.8
2017-Aug-18 23:30N 29°35' W 090°43'1 2.1
2017-Aug-18 23:00N 29°34' W 090°43'0 0.0
2017-Aug-18 22:30N 29°34' W 090°43'0 0.0
2017-Aug-18 22:00N 29°34' W 090°43'0 0.0
2017-Aug-18 21:30N 29°34' W 090°43'0 0.0
2017-Aug-18 21:00N 29°34' W 090°43'0 0.0
2017-Aug-18 20:30N 29°34' W 090°43'0 0.0
2017-Aug-18 20:00N 29°34' W 090°43'0 0.0
2017-Aug-18 19:30N 29°34' W 090°43'0 0.0
2017-Aug-18 19:00N 29°34' W 090°43'0 0.0
2017-Aug-18 18:30N 29°34' W 090°43'0 0.0
2017-Aug-18 18:00N 29°34' W 090°43'0 0.0
2017-Aug-18 17:30N 29°34' W 090°43'0 0.0
2017-Aug-18 17:00N 29°34' W 090°43'0 0.0
2017-Aug-18 16:30N 29°34' W 090°43'0 0.0
2017-Aug-18 16:00N 29°34' W 090°43'0 0.0
2017-Aug-18 15:30N 29°34' W 090°43'0 0.0
2017-Aug-18 15:00N 29°34' W 090°43'0 0.0
2017-Aug-18 14:30N 29°34' W 090°43'0 0.0
2017-Aug-18 13:30N 29°34' W 090°43'0 0.0
2017-Aug-18 13:00N 29°34' W 090°43'0 0.0
2017-Aug-18 12:30N 29°34' W 090°43'0 0.0
2017-Aug-18 12:00N 29°34' W 090°43'0 0.0
2017-Aug-18 11:30N 29°34' W 090°43'0 0.0
2017-Aug-18 11:00N 29°34' W 090°43'0 0.0
2017-Aug-18 10:30N 29°34' W 090°43'0 0.0
2017-Aug-18 10:00N 29°34' W 090°43'0 0.0
2017-Aug-18 09:30N 29°34' W 090°43'0 0.0
2017-Aug-18 09:00N 29°34' W 090°43'0 0.0
2017-Aug-18 08:30N 29°34' W 090°43'0 0.7
2017-Aug-18 08:00N 29°33' W 090°42'2 3.5
2017-Aug-18 07:30N 29°34' W 090°44'3 6.0
2017-Aug-18 07:00N 29°32' W 090°47'4 7.5
2017-Aug-18 06:30N 29°32' W 090°52'4 7.5
2017-Aug-18 05:55N 29°34' W 090°56'  
2017-Aug-11 21:54N 31°58' W 091°11'513.2
2017-Aug-11 21:30N 31°60' W 091°06'611.8
2017-Aug-11 20:57N 32°06' W 091°06'4 8.5
2017-Aug-11 20:30N 32°07' W 091°02'510.4
2017-Aug-11 19:59N 32°12' W 090°59'0 0.2
2017-Aug-11 19:31N 32°12' W 090°59'3 6.4
2017-Aug-11 19:01N 32°15' W 090°59'4 8.2
2017-Aug-11 18:30N 32°18' W 090°55'3 7.0
2017-Aug-11 18:01N 32°21' W 090°53'0 0.1
2017-Aug-11 17:31N 32°21' W 090°53'0 0.0
2017-Aug-11 17:01N 32°21' W 090°53'0 0.0
2017-Aug-11 16:30N 32°21' W 090°53'0 0.0
2017-Aug-11 16:00N 32°21' W 090°53'0 0.0
2017-Aug-11 15:30N 32°21' W 090°53'0 0.0
2017-Aug-11 15:01N 32°21' W 090°53'  

Dump ship's entire track history